createdAt,value
2022-11-08T00:02:30.276Z,12.47
2022-11-08T00:22:30.160Z,12.48
2022-11-08T00:42:30.142Z,12.48
2022-11-08T01:02:30.188Z,12.49
2022-11-08T01:22:30.093Z,12.5
2022-11-08T01:42:29.817Z,12.5
2022-11-08T02:02:29.831Z,12.51
2022-11-08T02:22:30.068Z,12.51
2022-11-08T02:42:29.998Z,12.51
2022-11-08T03:02:30.027Z,12.51
2022-11-08T03:22:29.952Z,12.51
2022-11-08T03:42:29.927Z,12.52
2022-11-08T04:02:29.947Z,12.52
2022-11-08T04:42:29.231Z,12.52
2022-11-08T05:02:30.022Z,12.52
2022-11-08T05:22:29.579Z,12.52
2022-11-08T05:42:29.792Z,12.52
2022-11-08T06:02:30.097Z,12.52
2022-11-08T06:22:29.789Z,12.52
2022-11-08T06:42:29.734Z,12.51
2022-11-08T07:02:30.100Z,12.51
2022-11-08T07:22:29.696Z,12.51
2022-11-08T07:42:43.792Z,12.51
2022-11-08T08:02:29.786Z,12.5
2022-11-08T08:22:29.598Z,12.5
2022-11-08T08:42:29.712Z,12.49
2022-11-08T09:02:29.663Z,12.49
2022-11-08T09:22:29.738Z,12.49
2022-11-08T09:42:29.481Z,12.48
2022-11-08T10:02:29.459Z,12.48
2022-11-08T10:22:29.426Z,12.48
2022-11-08T10:42:29.421Z,12.47
2022-11-08T11:02:29.389Z,12.47
2022-11-08T11:22:29.349Z,12.46
2022-11-08T11:42:44.918Z,12.46
2022-11-08T12:02:29.297Z,12.46
2022-11-08T12:22:29.247Z,12.47
2022-11-08T12:42:29.217Z,12.47
2022-11-08T13:02:29.185Z,12.47
2022-11-08T13:42:29.127Z,12.48
2022-11-08T14:02:29.082Z,12.49
2022-11-08T14:22:29.058Z,12.5
2022-11-08T14:42:29.032Z,12.5
2022-11-08T15:02:29.014Z,12.51
2022-11-08T15:22:28.981Z,12.52
2022-11-08T15:42:28.949Z,12.53
2022-11-08T16:02:28.959Z,12.53
2022-11-08T16:22:28.899Z,12.53
2022-11-08T16:42:28.866Z,12.54
2022-11-08T17:02:28.835Z,12.54
2022-11-08T17:42:30.071Z,12.55
2022-11-08T18:22:28.467Z,12.56
2022-11-08T19:22:28.647Z,12.59
2022-11-08T20:02:28.585Z,12.6
2022-11-08T20:22:27.950Z,12.61
2022-11-08T21:02:28.526Z,12.62
2022-11-08T21:22:28.490Z,12.63
2022-11-08T21:42:28.459Z,12.63
2022-11-08T22:02:28.446Z,12.63
2022-11-08T22:22:28.413Z,12.63
2022-11-08T22:42:28.382Z,12.64
2022-11-08T23:02:32.801Z,12.64
2022-11-08T23:42:28.301Z,12.64
